avis per tempestes more information blitzortung!


avis per Pluja more information rain snow radar


Visita la nostra xarxa de llocs de meteo:

Template documentation
and downloads

And another site



Thunderstorms From: 18-09-2018 09:00 Until: 19-09-2018 20:59 warning for: Thunderstorms Level: Yellow info button
Rain From: 18-09-2018 09:00 Until: 19-09-2018 20:59 warning for: Rain Level: Yellow info button

Pagina Historial Weather Underground text

Diari Resum May 6, 2017 Unitats:  Tant    Imperial   Mètric
« Previous Dia
SegĂźent Dia »
Diari Setmana Mensual Anual Personalitzada
  Maxima: Minima: Media:
Temperatura: TemperatureC °F /  -17.8 °C 11.6 °F /  -11.3 °C 20.3 °F /  -6.5 °C
Punt de rosada: DewpointC °F /  -17.8 °C 1.0 °F /  -17.2 °C 6.4 °F /  -14.2 °C
Humitat: Humidity % 22 % 43 %
Wind Speed: WindSpeedKMH mph /  0 km/h - 9.6 mph /  15.4 km/h
RĂ fegues de vent: WindSpeedGustKMH mph /  0 km/h - -
Vent:- - SSW
Pression baro: PressurehPa in /  0 hPa 1010.0 in /  34198.6 hPa -
Precipitacions: 0.0 in /  0 mm    
Historical Graphs
 
 
Dades de taula per May 6, 2017
Temps Temperatura Punt de rosada Pression baro Vent Wind Speed RĂ fegues de vent Humitat Rainfall Rate (Hourly)
TemperatureC °F /  -17.8 °C DewpointC °F /  -17.8 °C PressurehPa in /  0 hPa Calm     Humidity % HourlyPrecipMM in /  0 mm
00:04 16.0 °F /  -8.9 °C 6.9 °F /  -13.9 °C 1010.7 in /  34222.3 hPa East 5.6 mph /  9 km/h 5.6 mph /  9 km/h 55 % 0.0 in /  0 mm
00:05 13.9 °F /  -10.1 °C 7.7 °F /  -13.5 °C 1010.0 in /  34198.6 hPa WSW 4.8 mph /  7.7 km/h 6.4 mph /  10.3 km/h 66 % 0.0 in /  0 mm
00:15 14.3 °F /  -9.8 °C 8.1 °F /  -13.3 °C 1010.0 in /  34198.6 hPa West 9.7 mph /  15.6 km/h 17.7 mph /  28.5 km/h 66 % 0.0 in /  0 mm
00:25 14.4 °F /  -9.8 °C 7.9 °F /  -13.4 °C 1010.0 in /  34198.6 hPa WSW 4.8 mph /  7.7 km/h 8.0 mph /  12.9 km/h 65 % 0.0 in /  0 mm
00:35 14.4 °F /  -9.8 °C 7.9 °F /  -13.4 °C 1010.0 in /  34198.6 hPa West 1.6 mph /  2.6 km/h 8.0 mph /  12.9 km/h 65 % 0.0 in /  0 mm
00:45 14.3 °F /  -9.8 °C 7.8 °F /  -13.4 °C 1010.0 in /  34198.6 hPa West 3.2 mph /  5.1 km/h 4.8 mph /  7.7 km/h 65 % 0.0 in /  0 mm
00:55 14.3 °F /  -9.8 °C 7.8 °F /  -13.4 °C 1010.0 in /  34198.6 hPa WSW 4.8 mph /  7.7 km/h 6.4 mph /  10.3 km/h 65 % 0.0 in /  0 mm
01:05 14.4 °F /  -9.8 °C 8.1 °F /  -13.3 °C 1010.0 in /  34198.6 hPa WSW 1.6 mph /  2.6 km/h 3.2 mph /  5.1 km/h 66 % 0.0 in /  0 mm
01:15 14.5 °F /  -9.7 °C 8.2 °F /  -13.2 °C 1010.0 in /  34198.6 hPa WSW 3.2 mph /  5.1 km/h 6.4 mph /  10.3 km/h 66 % 0.0 in /  0 mm
01:25 14.6 °F /  -9.7 °C 8.6 °F /  -13 °C 1010.0 in /  34198.6 hPa WSW 3.2 mph /  5.1 km/h 9.7 mph /  15.6 km/h 67 % 0.0 in /  0 mm
01:35 14.7 °F /  -9.6 °C 8.8 °F /  -12.9 °C 1010.0 in /  34198.6 hPa WSW 9.7 mph /  15.6 km/h 11.3 mph /  18.2 km/h 68 % 0.0 in /  0 mm
01:45 14.8 °F /  -9.6 °C 8.9 °F /  -12.8 °C 1010.0 in /  34198.6 hPa WSW 3.2 mph /  5.1 km/h 8.0 mph /  12.9 km/h 68 % 0.0 in /  0 mm
01:55 14.6 °F /  -9.7 °C 8.8 °F /  -12.9 °C 1010.0 in /  34198.6 hPa WSW 3.2 mph /  5.1 km/h 4.8 mph /  7.7 km/h 68 % 0.0 in /  0 mm
02:05 14.4 °F /  -9.8 °C 8.6 °F /  -13 °C 1010.0 in /  34198.6 hPa WSW 3.2 mph /  5.1 km/h 3.2 mph /  5.1 km/h 68 % 0.0 in /  0 mm
02:15 14.3 °F /  -9.8 °C 8.4 °F /  -13.1 °C 1010.0 in /  34198.6 hPa SW 3.2 mph /  5.1 km/h 6.4 mph /  10.3 km/h 68 % 0.0 in /  0 mm
02:25 14.6 °F /  -9.7 °C 8.6 °F /  -13 °C 1010.0 in /  34198.6 hPa WSW 3.2 mph /  5.1 km/h 6.4 mph /  10.3 km/h 67 % 0.0 in /  0 mm
02:35 14.9 °F /  -9.5 °C 8.6 °F /  -13 °C 1010.0 in /  34198.6 hPa West 4.8 mph /  7.7 km/h 6.4 mph /  10.3 km/h 66 % 0.0 in /  0 mm
02:45 15.0 °F /  -9.4 °C 8.4 °F /  -13.1 °C 1010.0 in /  34198.6 hPa West 4.8 mph /  7.7 km/h 14.5 mph /  23.3 km/h 65 % 0.0 in /  0 mm
02:55 15.2 °F /  -9.3 °C 8.7 °F /  -12.9 °C 1010.0 in /  34198.6 hPa West 8.0 mph /  12.9 km/h 8.0 mph /  12.9 km/h 65 % 0.0 in /  0 mm
03:05 15.2 °F /  -9.3 °C 8.4 °F /  -13.1 °C 1010.7 in /  34222.3 hPa West 4.8 mph /  7.7 km/h 12.9 mph /  20.8 km/h 64 % 0.0 in /  0 mm
03:15 15.3 °F /  -9.3 °C 8.5 °F /  -13.1 °C 1010.7 in /  34222.3 hPa West 4.8 mph /  7.7 km/h 4.8 mph /  7.7 km/h 64 % 0.0 in /  0 mm
03:25 15.5 °F /  -9.2 °C 8.7 °F /  -12.9 °C 1010.7 in /  34222.3 hPa WSW 4.8 mph /  7.7 km/h 6.4 mph /  10.3 km/h 64 % 0.0 in /  0 mm
03:35 16.0 °F /  -8.9 °C 9.2 °F /  -12.7 °C 1010.7 in /  34222.3 hPa WNW 3.2 mph /  5.1 km/h 4.8 mph /  7.7 km/h 64 % 0.0 in /  0 mm
03:45 16.0 °F /  -8.9 °C 8.9 °F /  -12.8 °C 1010.7 in /  34222.3 hPa WNW 4.8 mph /  7.7 km/h 12.9 mph /  20.8 km/h 63 % 0.0 in /  0 mm
03:55 16.2 °F /  -8.8 °C 8.9 °F /  -12.8 °C 1011.7 in /  34256.2 hPa West 8.0 mph /  12.9 km/h 9.7 mph /  15.6 km/h 62 % 0.0 in /  0 mm
04:05 16.8 °F /  -8.4 °C 9.5 °F /  -12.5 °C 1011.7 in /  34256.2 hPa West 4.8 mph /  7.7 km/h 6.4 mph /  10.3 km/h 62 % 0.0 in /  0 mm
04:15 17.1 °F /  -8.3 °C 9.5 °F /  -12.5 °C 1011.7 in /  34256.2 hPa WSW 4.8 mph /  7.7 km/h 6.4 mph /  10.3 km/h 61 % 0.0 in /  0 mm
04:25 17.4 °F /  -8.1 °C 9.3 °F /  -12.6 °C 1011.7 in /  34256.2 hPa SW 4.8 mph /  7.7 km/h 8.0 mph /  12.9 km/h 59 % 0.0 in /  0 mm
04:35 17.1 °F /  -8.3 °C 8.0 °F /  -13.3 °C 1011.7 in /  34256.2 hPa West 11.3 mph /  18.2 km/h 11.3 mph /  18.2 km/h 55 % 0.0 in /  0 mm
04:45 17.3 °F /  -8.2 °C 7.9 °F /  -13.4 °C 1011.7 in /  34256.2 hPa West 4.8 mph /  7.7 km/h 9.7 mph /  15.6 km/h 54 % 0.0 in /  0 mm
04:55 17.3 °F /  -8.2 °C 7.6 °F /  -13.6 °C 1011.7 in /  34256.2 hPa WSW 9.7 mph /  15.6 km/h 11.3 mph /  18.2 km/h 53 % 0.0 in /  0 mm
05:05 17.5 °F /  -8.1 °C 7.6 °F /  -13.6 °C 1011.7 in /  34256.2 hPa WSW 9.7 mph /  15.6 km/h 17.7 mph /  28.5 km/h 52 % 0.0 in /  0 mm
05:15 18.0 °F /  -7.8 °C 7.7 °F /  -13.5 °C 1011.7 in /  34256.2 hPa West 8.0 mph /  12.9 km/h 17.7 mph /  28.5 km/h 51 % 0.0 in /  0 mm
05:25 18.3 °F /  -7.6 °C 7.7 °F /  -13.5 °C 1011.7 in /  34256.2 hPa West 9.7 mph /  15.6 km/h 16.1 mph /  25.9 km/h 50 % 0.0 in /  0 mm
05:35 18.8 °F /  -7.3 °C 8.2 °F /  -13.2 °C 1012.8 in /  34293.4 hPa West 8.0 mph /  12.9 km/h 12.9 mph /  20.8 km/h 50 % 0.0 in /  0 mm
05:45 19.4 °F /  -7 °C 8.4 °F /  -13.1 °C 1012.8 in /  34293.4 hPa West 4.8 mph /  7.7 km/h 9.7 mph /  15.6 km/h 49 % 0.0 in /  0 mm
05:55 19.8 °F /  -6.8 °C 8.4 °F /  -13.1 °C 1012.8 in /  34293.4 hPa WSW 8.0 mph /  12.9 km/h 9.7 mph /  15.6 km/h 48 % 0.0 in /  0 mm
06:05 20.2 °F /  -6.6 °C 8.5 °F /  -13.1 °C 1012.8 in /  34293.4 hPa West 3.2 mph /  5.1 km/h 16.1 mph /  25.9 km/h 47 % 0.0 in /  0 mm
11:10 20.1 °F /  -6.6 °C 7.8 °F /  -13.4 °C 1012.8 in /  34293.4 hPa NW 9.5 mph /  15.3 km/h 9.5 mph /  15.3 km/h 45 % 0.0 in /  0 mm
11:15 20.1 °F /  -6.6 °C 7.4 °F /  -13.7 °C 1013.8 in /  34327.3 hPa WSW 11.1 mph /  17.9 km/h 11.1 mph /  17.9 km/h 44 % 0.0 in /  0 mm
11:20 20.4 °F /  -6.4 °C 7.7 °F /  -13.5 °C 1013.8 in /  34327.3 hPa WNW 9.3 mph /  15 km/h 9.3 mph /  15 km/h 44 % 0.0 in /  0 mm
11:25 20.5 °F /  -6.4 °C 7.5 °F /  -13.6 °C 1013.8 in /  34327.3 hPa SSW 11.1 mph /  17.9 km/h 11.1 mph /  17.9 km/h 43 % 0.0 in /  0 mm
11:31 20.7 °F /  -6.3 °C 7.3 °F /  -13.7 °C 1012.8 in /  34293.4 hPa WSW 9.3 mph /  15 km/h 9.3 mph /  15 km/h 42 % 0.0 in /  0 mm
11:36 20.9 °F /  -6.2 °C 7.8 °F /  -13.4 °C 1012.8 in /  34293.4 hPa WSW 9.3 mph /  15 km/h 9.3 mph /  15 km/h 43 % 0.0 in /  0 mm
11:41 20.9 °F /  -6.2 °C 7.5 °F /  -13.6 °C 1013.8 in /  34327.3 hPa West 9.3 mph /  15 km/h 9.3 mph /  15 km/h 42 % 0.0 in /  0 mm
11:46 21.5 °F /  -5.8 °C 8.1 °F /  -13.3 °C 1013.8 in /  34327.3 hPa WNW 12.2 mph /  19.6 km/h 12.2 mph /  19.6 km/h 42 % 0.0 in /  0 mm
11:51 21.2 °F /  -6 °C 7.4 °F /  -13.7 °C 1013.8 in /  34327.3 hPa SW 15.1 mph /  24.3 km/h 15.1 mph /  24.3 km/h 41 % 0.0 in /  0 mm
11:56 21.2 °F /  -6 °C 7.1 °F /  -13.8 °C 1013.8 in /  34327.3 hPa SW 10.3 mph /  16.6 km/h 10.3 mph /  16.6 km/h 40 % 0.0 in /  0 mm
12:01 21.6 °F /  -5.8 °C 7.8 °F /  -13.4 °C 1013.8 in /  34327.3 hPa ENE 7.4 mph /  11.9 km/h 7.4 mph /  11.9 km/h 41 % 0.0 in /  0 mm
12:06 21.5 °F /  -5.8 °C 7.3 °F /  -13.7 °C 1013.8 in /  34327.3 hPa WSW 20.4 mph /  32.8 km/h 20.4 mph /  32.8 km/h 40 % 0.0 in /  0 mm
12:11 21.8 °F /  -5.7 °C 7.6 °F /  -13.6 °C 1013.8 in /  34327.3 hPa NW 13.0 mph /  20.9 km/h 13.0 mph /  20.9 km/h 40 % 0.0 in /  0 mm
12:16 21.9 °F /  -5.6 °C 7.7 °F /  -13.5 °C 1013.8 in /  34327.3 hPa SSW 11.1 mph /  17.9 km/h 11.1 mph /  17.9 km/h 40 % 0.0 in /  0 mm
12:21 21.8 °F /  -5.7 °C 7.6 °F /  -13.6 °C 1013.8 in /  34327.3 hPa East 9.3 mph /  15 km/h 9.3 mph /  15 km/h 40 % 0.0 in /  0 mm
12:26 22.0 °F /  -5.6 °C 7.8 °F /  -13.4 °C 1013.8 in /  34327.3 hPa NW 13.0 mph /  20.9 km/h 13.0 mph /  20.9 km/h 40 % 0.0 in /  0 mm
12:31 21.9 °F /  -5.6 °C 7.3 °F /  -13.7 °C 1013.8 in /  34327.3 hPa WSW 11.1 mph /  17.9 km/h 11.4 mph /  18.3 km/h 39 % 0.0 in /  0 mm
12:36 21.9 °F /  -5.6 °C 7.3 °F /  -13.7 °C 1013.8 in /  34327.3 hPa West 14.0 mph /  22.5 km/h 14.0 mph /  22.5 km/h 39 % 0.0 in /  0 mm
12:41 21.9 °F /  -5.6 °C 7.3 °F /  -13.7 °C 1013.8 in /  34327.3 hPa West 13.0 mph /  20.9 km/h 13.0 mph /  20.9 km/h 39 % 0.0 in /  0 mm
12:46 22.1 °F /  -5.5 °C 7.5 °F /  -13.6 °C 1013.8 in /  34327.3 hPa WNW 14.8 mph /  23.8 km/h 14.8 mph /  23.8 km/h 39 % 0.0 in /  0 mm
12:51 22.1 °F /  -5.5 °C 7.5 °F /  -13.6 °C 1013.8 in /  34327.3 hPa West 14.8 mph /  23.8 km/h 14.8 mph /  23.8 km/h 39 % 0.0 in /  0 mm
12:56 22.1 °F /  -5.5 °C 7.1 °F /  -13.8 °C 1012.8 in /  34293.4 hPa West 20.4 mph /  32.8 km/h 20.4 mph /  32.8 km/h 38 % 0.0 in /  0 mm
13:01 22.2 °F /  -5.4 °C 7.2 °F /  -13.8 °C 1012.8 in /  34293.4 hPa WSW 13.7 mph /  22 km/h 13.7 mph /  22 km/h 38 % 0.0 in /  0 mm
13:06 22.4 °F /  -5.3 °C 7.4 °F /  -13.7 °C 1012.8 in /  34293.4 hPa NNW 18.0 mph /  29 km/h 18.0 mph /  29 km/h 38 % 0.0 in /  0 mm
13:11 22.0 °F /  -5.6 °C 6.2 °F /  -14.3 °C 1013.8 in /  34327.3 hPa WNW 13.0 mph /  20.9 km/h 13.0 mph /  20.9 km/h 36 % 0.0 in /  0 mm
13:16 22.1 °F /  -5.5 °C 6.7 °F /  -14.1 °C 1013.8 in /  34327.3 hPa SW 16.1 mph /  25.9 km/h 16.1 mph /  25.9 km/h 37 % 0.0 in /  0 mm
13:21 22.2 °F /  -5.4 °C 6.8 °F /  -14 °C 1013.8 in /  34327.3 hPa WSW 13.0 mph /  20.9 km/h 13.0 mph /  20.9 km/h 37 % 0.0 in /  0 mm
13:26 22.3 °F /  -5.4 °C 6.9 °F /  -13.9 °C 1013.8 in /  34327.3 hPa WSW 16.7 mph /  26.9 km/h 16.7 mph /  26.9 km/h 37 % 0.0 in /  0 mm
13:31 22.5 °F /  -5.3 °C 7.1 °F /  -13.8 °C 1013.8 in /  34327.3 hPa SW 9.7 mph /  15.6 km/h 9.7 mph /  15.6 km/h 37 % 0.0 in /  0 mm
13:36 23.0 °F /  -5 °C 7.1 °F /  -13.8 °C 1013.8 in /  34327.3 hPa West 13.0 mph /  20.9 km/h 13.0 mph /  20.9 km/h 36 % 0.0 in /  0 mm
13:41 22.9 °F /  -5.1 °C 7.4 °F /  -13.7 °C 1013.8 in /  34327.3 hPa SW 11.1 mph /  17.9 km/h 11.1 mph /  17.9 km/h 37 % 0.0 in /  0 mm
13:46 23.3 °F /  -4.8 °C 7.4 °F /  -13.7 °C 1013.8 in /  34327.3 hPa West 9.3 mph /  15 km/h 9.3 mph /  15 km/h 36 % 0.0 in /  0 mm
13:51 23.4 °F /  -4.8 °C 7.5 °F /  -13.6 °C 1013.8 in /  34327.3 hPa WNW 16.7 mph /  26.9 km/h 16.7 mph /  26.9 km/h 36 % 0.0 in /  0 mm
13:56 23.4 °F /  -4.8 °C 7.1 °F /  -13.8 °C 1013.8 in /  34327.3 hPa WSW 14.8 mph /  23.8 km/h 14.8 mph /  23.8 km/h 35 % 0.0 in /  0 mm
14:01 23.5 °F /  -4.7 °C 7.2 °F /  -13.8 °C 1013.8 in /  34327.3 hPa WSW 13.0 mph /  20.9 km/h 13.0 mph /  20.9 km/h 35 % 0.0 in /  0 mm
14:06 23.6 °F /  -4.7 °C 7.2 °F /  -13.8 °C 1013.8 in /  34327.3 hPa South 13.0 mph /  20.9 km/h 13.0 mph /  20.9 km/h 35 % 0.0 in /  0 mm
14:11 23.7 °F /  -4.6 °C 6.9 °F /  -13.9 °C 1013.8 in /  34327.3 hPa WSW 13.0 mph /  20.9 km/h 13.0 mph /  20.9 km/h 34 % 0.0 in /  0 mm
14:16 23.6 °F /  -4.7 °C 6.8 °F /  -14 °C 1013.8 in /  34327.3 hPa WSW 15.8 mph /  25.4 km/h 15.8 mph /  25.4 km/h 34 % 0.0 in /  0 mm
14:21 23.9 °F /  -4.5 °C 7.5 °F /  -13.6 °C 1013.8 in /  34327.3 hPa WNW 13.0 mph /  20.9 km/h 13.0 mph /  20.9 km/h 35 % 0.0 in /  0 mm
14:26 23.6 °F /  -4.7 °C 6.4 °F /  -14.2 °C 1012.8 in /  34293.4 hPa WSW 20.4 mph /  32.8 km/h 20.4 mph /  32.8 km/h 33 % 0.0 in /  0 mm
14:31 24.2 °F /  -4.3 °C 7.3 °F /  -13.7 °C 1012.8 in /  34293.4 hPa WSW 9.3 mph /  15 km/h 9.3 mph /  15 km/h 34 % 0.0 in /  0 mm
14:36 24.1 °F /  -4.4 °C 6.8 °F /  -14 °C 1012.8 in /  34293.4 hPa West 13.0 mph /  20.9 km/h 13.0 mph /  20.9 km/h 33 % 0.0 in /  0 mm
14:41 23.8 °F /  -4.6 °C 6.6 °F /  -14.1 °C 1013.8 in /  34327.3 hPa WSW 18.5 mph /  29.8 km/h 18.5 mph /  29.8 km/h 33 % 0.0 in /  0 mm
14:46 24.1 °F /  -4.4 °C 6.4 °F /  -14.2 °C 1013.8 in /  34327.3 hPa WSW 16.7 mph /  26.9 km/h 16.7 mph /  26.9 km/h 32 % 0.0 in /  0 mm
14:51 24.4 °F /  -4.2 °C 7.1 °F /  -13.8 °C 1013.8 in /  34327.3 hPa West 9.3 mph /  15 km/h 9.3 mph /  15 km/h 33 % 0.0 in /  0 mm
14:56 24.7 °F /  -4.1 °C 6.9 °F /  -13.9 °C 1013.8 in /  34327.3 hPa WSW 16.7 mph /  26.9 km/h 16.7 mph /  26.9 km/h 32 % 0.0 in /  0 mm
15:01 24.6 °F /  -4.1 °C 6.8 °F /  -14 °C 1013.8 in /  34327.3 hPa West 16.9 mph /  27.2 km/h 16.9 mph /  27.2 km/h 32 % 0.0 in /  0 mm
15:06 24.7 °F /  -4.1 °C 6.9 °F /  -13.9 °C 1013.8 in /  34327.3 hPa WSW 16.9 mph /  27.2 km/h 16.9 mph /  27.2 km/h 32 % 0.0 in /  0 mm
15:11 24.4 °F /  -4.2 °C 6.2 °F /  -14.3 °C 1013.8 in /  34327.3 hPa West 13.0 mph /  20.9 km/h 13.0 mph /  20.9 km/h 31 % 0.0 in /  0 mm
15:16 24.7 °F /  -4.1 °C 6.9 °F /  -13.9 °C 1013.8 in /  34327.3 hPa WSW 14.8 mph /  23.8 km/h 14.8 mph /  23.8 km/h 32 % 0.0 in /  0 mm
15:21 24.8 °F /  -4 °C 7.0 °F /  -13.9 °C 1013.8 in /  34327.3 hPa West 13.0 mph /  20.9 km/h 13.0 mph /  20.9 km/h 32 % 0.0 in /  0 mm
15:22 24.9 °F /  -3.9 °C 7.1 °F /  -13.8 °C 1013.8 in /  34327.3 hPa WSW 13.0 mph /  20.9 km/h 13.0 mph /  20.9 km/h 32 % 0.0 in /  0 mm
15:27 24.8 °F /  -4 °C 6.5 °F /  -14.2 °C 1013.8 in /  34327.3 hPa WSW 16.7 mph /  26.9 km/h 16.7 mph /  26.9 km/h 31 % 0.0 in /  0 mm
15:32 24.6 °F /  -4.1 °C 5.9 °F /  -14.5 °C 1013.8 in /  34327.3 hPa WSW 13.0 mph /  20.9 km/h 13.0 mph /  20.9 km/h 30 % 0.0 in /  0 mm
15:37 24.6 °F /  -4.1 °C 5.9 °F /  -14.5 °C 1013.8 in /  34327.3 hPa SW 11.1 mph /  17.9 km/h 11.1 mph /  17.9 km/h 30 % 0.0 in /  0 mm
15:42 24.9 °F /  -3.9 °C 6.6 °F /  -14.1 °C 1013.8 in /  34327.3 hPa SW 11.1 mph /  17.9 km/h 11.1 mph /  17.9 km/h 31 % 0.0 in /  0 mm
15:47 25.4 °F /  -3.7 °C 6.6 °F /  -14.1 °C 1013.8 in /  34327.3 hPa West 12.2 mph /  19.6 km/h 12.2 mph /  19.6 km/h 30 % 0.0 in /  0 mm
15:52 25.2 °F /  -3.8 °C 5.9 °F /  -14.5 °C 1013.8 in /  34327.3 hPa WSW 13.0 mph /  20.9 km/h 13.0 mph /  20.9 km/h 29 % 0.0 in /  0 mm
15:57 25.1 °F /  -3.8 °C 5.8 °F /  -14.6 °C 1013.8 in /  34327.3 hPa West 13.0 mph /  20.9 km/h 13.0 mph /  20.9 km/h 29 % 0.0 in /  0 mm
16:02 25.2 °F /  -3.8 °C 5.9 °F /  -14.5 °C 1013.8 in /  34327.3 hPa WSW 11.1 mph /  17.9 km/h 11.1 mph /  17.9 km/h 29 % 0.0 in /  0 mm
16:07 25.7 °F /  -3.5 °C 6.3 °F /  -14.3 °C 1013.8 in /  34327.3 hPa WSW 9.3 mph /  15 km/h 9.3 mph /  15 km/h 29 % 0.0 in /  0 mm
16:12 25.3 °F /  -3.7 °C 6.0 °F /  -14.4 °C 1014.8 in /  34361.1 hPa West 13.0 mph /  20.9 km/h 13.0 mph /  20.9 km/h 29 % 0.0 in /  0 mm
16:14 25.3 °F /  -3.7 °C 6.0 °F /  -14.4 °C 1014.8 in /  34361.1 hPa SW 9.3 mph /  15 km/h 9.3 mph /  15 km/h 29 % 0.0 in /  0 mm
16:19 25.6 °F /  -3.6 °C 6.2 °F /  -14.3 °C 1014.8 in /  34361.1 hPa SW 14.8 mph /  23.8 km/h 14.8 mph /  23.8 km/h 29 % 0.0 in /  0 mm
16:24 25.4 °F /  -3.7 °C 5.6 °F /  -14.7 °C 1014.8 in /  34361.1 hPa WSW 11.4 mph /  18.3 km/h 11.4 mph /  18.3 km/h 28 % 0.0 in /  0 mm
16:29 25.4 °F /  -3.7 °C 5.6 °F /  -14.7 °C 1014.8 in /  34361.1 hPa SW 11.1 mph /  17.9 km/h 11.1 mph /  17.9 km/h 28 % 0.0 in /  0 mm
16:34 25.1 °F /  -3.8 °C 5.3 °F /  -14.8 °C 1014.8 in /  34361.1 hPa West 25.9 mph /  41.7 km/h 25.9 mph /  41.7 km/h 28 % 0.0 in /  0 mm
16:39 25.3 °F /  -3.7 °C 4.9 °F /  -15.1 °C 1014.8 in /  34361.1 hPa West 16.7 mph /  26.9 km/h 16.7 mph /  26.9 km/h 27 % 0.0 in /  0 mm
16:44 25.1 °F /  -3.8 °C 4.8 °F /  -15.1 °C 1014.8 in /  34361.1 hPa WNW 11.1 mph /  17.9 km/h 11.1 mph /  17.9 km/h 27 % 0.0 in /  0 mm
16:49 24.9 °F /  -3.9 °C 5.1 °F /  -14.9 °C 1014.8 in /  34361.1 hPa West 13.0 mph /  20.9 km/h 13.0 mph /  20.9 km/h 28 % 0.0 in /  0 mm
16:54 25.4 °F /  -3.7 °C 5.1 °F /  -14.9 °C 1014.8 in /  34361.1 hPa WNW 5.6 mph /  9 km/h 5.8 mph /  9.3 km/h 27 % 0.0 in /  0 mm
16:59 25.6 °F /  -3.6 °C 5.2 °F /  -14.9 °C 1014.8 in /  34361.1 hPa WSW 11.1 mph /  17.9 km/h 11.1 mph /  17.9 km/h 27 % 0.0 in /  0 mm
17:04 25.3 °F /  -3.7 °C 4.4 °F /  -15.3 °C 1014.8 in /  34361.1 hPa SW 14.8 mph /  23.8 km/h 14.8 mph /  23.8 km/h 26 % 0.0 in /  0 mm
17:09 25.3 °F /  -3.7 °C 4.4 °F /  -15.3 °C 1014.8 in /  34361.1 hPa West 11.1 mph /  17.9 km/h 11.1 mph /  17.9 km/h 26 % 0.0 in /  0 mm
17:14 25.6 °F /  -3.6 °C 4.7 °F /  -15.2 °C 1014.8 in /  34361.1 hPa SSW 9.3 mph /  15 km/h 9.3 mph /  15 km/h 26 % 0.0 in /  0 mm
17:19 25.6 °F /  -3.6 °C 4.1 °F /  -15.5 °C 1014.8 in /  34361.1 hPa WSW 18.5 mph /  29.8 km/h 18.5 mph /  29.8 km/h 25 % 0.0 in /  0 mm
17:24 25.6 °F /  -3.6 °C 4.1 °F /  -15.5 °C 1014.8 in /  34361.1 hPa WSW 9.3 mph /  15 km/h 9.3 mph /  15 km/h 25 % 0.0 in /  0 mm
17:29 25.7 °F /  -3.5 °C 4.7 °F /  -15.2 °C 1013.8 in /  34327.3 hPa SW 9.3 mph /  15 km/h 9.3 mph /  15 km/h 26 % 0.0 in /  0 mm
17:34 25.5 °F /  -3.6 °C 4.0 °F /  -15.6 °C 1013.8 in /  34327.3 hPa WSW 9.3 mph /  15 km/h 9.3 mph /  15 km/h 25 % 0.0 in /  0 mm
17:39 25.9 °F /  -3.4 °C 4.3 °F /  -15.4 °C 1013.8 in /  34327.3 hPa WSW 9.3 mph /  15 km/h 9.3 mph /  15 km/h 25 % 0.0 in /  0 mm
17:44 25.6 °F /  -3.6 °C 3.5 °F /  -15.8 °C 1014.8 in /  34361.1 hPa West 14.8 mph /  23.8 km/h 14.8 mph /  23.8 km/h 24 % 0.0 in /  0 mm
17:50 25.5 °F /  -3.6 °C 2.8 °F /  -16.2 °C 1014.8 in /  34361.1 hPa WSW 8.0 mph /  12.9 km/h 19.3 mph /  31.1 km/h 23 % 0.0 in /  0 mm
17:55 25.6 °F /  -3.6 °C 3.5 °F /  -15.8 °C 1014.8 in /  34361.1 hPa WSW 4.8 mph /  7.7 km/h 11.3 mph /  18.2 km/h 24 % 0.0 in /  0 mm
18:00 25.6 °F /  -3.6 °C 3.5 °F /  -15.8 °C 1014.8 in /  34361.1 hPa WNW 11.1 mph /  17.9 km/h 11.1 mph /  17.9 km/h 24 % 0.0 in /  0 mm
18:05 25.3 °F /  -3.7 °C 2.7 °F /  -16.3 °C 1014.8 in /  34361.1 hPa WSW 18.5 mph /  29.8 km/h 18.5 mph /  29.8 km/h 23 % 0.0 in /  0 mm
18:10 25.1 °F /  -3.8 °C 2.5 °F /  -16.4 °C 1014.8 in /  34361.1 hPa NNW 13.0 mph /  20.9 km/h 13.0 mph /  20.9 km/h 23 % 0.0 in /  0 mm
18:15 25.1 °F /  -3.8 °C 2.5 °F /  -16.4 °C 1014.8 in /  34361.1 hPa West 11.1 mph /  17.9 km/h 11.1 mph /  17.9 km/h 23 % 0.0 in /  0 mm
18:20 25.0 °F /  -3.9 °C 1.8 °F /  -16.8 °C 1014.8 in /  34361.1 hPa West 11.3 mph /  18.2 km/h 16.1 mph /  25.9 km/h 22 % 0.0 in /  0 mm
18:25 25.3 °F /  -3.7 °C 2.7 °F /  -16.3 °C 1014.8 in /  34361.1 hPa NNW 7.4 mph /  11.9 km/h 7.4 mph /  11.9 km/h 23 % 0.0 in /  0 mm
18:30 25.2 °F /  -3.8 °C 2.6 °F /  -16.3 °C 1014.8 in /  34361.1 hPa West 11.4 mph /  18.3 km/h 11.4 mph /  18.3 km/h 23 % 0.0 in /  0 mm
18:35 25.1 °F /  -3.8 °C 2.5 °F /  -16.4 °C 1014.8 in /  34361.1 hPa West 16.7 mph /  26.9 km/h 16.7 mph /  26.9 km/h 23 % 0.0 in /  0 mm
18:40 24.9 °F /  -3.9 °C 2.3 °F /  -16.5 °C 1014.8 in /  34361.1 hPa SW 7.4 mph /  11.9 km/h 9.5 mph /  15.3 km/h 23 % 0.0 in /  0 mm
18:45 25.0 °F /  -3.9 °C 2.4 °F /  -16.4 °C 1014.8 in /  34361.1 hPa West 5.6 mph /  9 km/h 5.6 mph /  9 km/h 23 % 0.0 in /  0 mm
18:50 24.9 °F /  -3.9 °C 3.5 °F /  -15.8 °C 1014.8 in /  34361.1 hPa NNW 9.5 mph /  15.3 km/h 9.5 mph /  15.3 km/h 25 % 0.0 in /  0 mm
18:55 24.8 °F /  -4 °C 2.8 °F /  -16.2 °C 1014.8 in /  34361.1 hPa SW 14.8 mph /  23.8 km/h 14.8 mph /  23.8 km/h 24 % 0.0 in /  0 mm
19:00 24.5 °F /  -4.2 °C 2.0 °F /  -16.7 °C 1015.8 in /  34395 hPa WSW 8.0 mph /  12.9 km/h 16.1 mph /  25.9 km/h 23 % 0.0 in /  0 mm
19:05 24.3 °F /  -4.3 °C 1.2 °F /  -17.1 °C 1015.8 in /  34395 hPa SW 13.0 mph /  20.9 km/h 13.0 mph /  20.9 km/h 22 % 0.0 in /  0 mm
19:10 24.3 °F /  -4.3 °C 1.8 °F /  -16.8 °C 1015.8 in /  34395 hPa SSW 9.3 mph /  15 km/h 9.3 mph /  15 km/h 23 % 0.0 in /  0 mm
19:15 24.2 °F /  -4.3 °C 1.7 °F /  -16.8 °C 1015.8 in /  34395 hPa WSW 9.3 mph /  15 km/h 9.3 mph /  15 km/h 23 % 0.0 in /  0 mm
19:20 24.2 °F /  -4.3 °C 1.7 °F /  -16.8 °C 1015.8 in /  34395 hPa West 9.3 mph /  15 km/h 9.3 mph /  15 km/h 23 % 0.0 in /  0 mm
19:25 24.1 °F /  -4.4 °C 2.2 °F /  -16.6 °C 1015.8 in /  34395 hPa WSW 4.8 mph /  7.7 km/h 11.3 mph /  18.2 km/h 24 % 0.0 in /  0 mm
19:30 23.8 °F /  -4.6 °C 2.0 °F /  -16.7 °C 1015.8 in /  34395 hPa West 9.7 mph /  15.6 km/h 9.7 mph /  15.6 km/h 24 % 0.0 in /  0 mm
19:35 23.6 °F /  -4.7 °C 1.8 °F /  -16.8 °C 1015.8 in /  34395 hPa SW 7.4 mph /  11.9 km/h 7.4 mph /  11.9 km/h 24 % 0.0 in /  0 mm
19:40 23.6 °F /  -4.7 °C 1.8 °F /  -16.8 °C 1015.8 in /  34395 hPa SW 9.3 mph /  15 km/h 9.3 mph /  15 km/h 24 % 0.0 in /  0 mm
19:45 23.3 °F /  -4.8 °C 1.0 °F /  -17.2 °C 1014.8 in /  34361.1 hPa WSW 7.4 mph /  11.9 km/h 7.4 mph /  11.9 km/h 23 % 0.0 in /  0 mm
19:50 23.2 °F /  -4.9 °C 1.5 °F /  -16.9 °C 1014.8 in /  34361.1 hPa West 3.2 mph /  5.1 km/h 4.8 mph /  7.7 km/h 24 % 0.0 in /  0 mm
19:55 23.1 °F /  -4.9 °C 1.4 °F /  -17 °C 1014.8 in /  34361.1 hPa WSW 1.6 mph /  2.6 km/h 4.8 mph /  7.7 km/h 24 % 0.0 in /  0 mm
20:00 22.9 °F /  -5.1 °C 1.3 °F /  -17.1 °C 1015.8 in /  34395 hPa SSW 1.6 mph /  2.6 km/h 6.4 mph /  10.3 km/h 24 % 0.0 in /  0 mm
20:05 20.9 °F /  -6.2 °C 3.6 °F /  -15.8 °C 1015.8 in /  34395 hPa ESE 12.9 mph /  20.8 km/h 19.3 mph /  31.1 km/h 32 % 0.0 in /  0 mm
20:10 20.1 °F /  -6.6 °C 4.2 °F /  -15.4 °C 1015.8 in /  34395 hPa ESE 8.0 mph /  12.9 km/h 19.3 mph /  31.1 km/h 35 % 0.0 in /  0 mm
20:15 19.6 °F /  -6.9 °C 5.6 °F /  -14.7 °C 1016.8 in /  34428.8 hPa NNE 18.5 mph /  29.8 km/h 18.5 mph /  29.8 km/h 40 % 0.0 in /  0 mm
20:20 19.1 °F /  -7.2 °C 6.2 °F /  -14.3 °C 1016.8 in /  34428.8 hPa NE 18.5 mph /  29.8 km/h 18.5 mph /  29.8 km/h 43 % 0.0 in /  0 mm
20:25 18.9 °F /  -7.3 °C 7.0 °F /  -13.9 °C 1016.8 in /  34428.8 hPa ENE 20.4 mph /  32.8 km/h 20.4 mph /  32.8 km/h 46 % 0.0 in /  0 mm
20:30 18.7 °F /  -7.4 °C 7.2 °F /  -13.8 °C 1017.8 in /  34462.7 hPa East 14.8 mph /  23.8 km/h 14.8 mph /  23.8 km/h 47 % 0.0 in /  0 mm
20:35 18.4 °F /  -7.6 °C 7.5 °F /  -13.6 °C 1017.8 in /  34462.7 hPa East 13.0 mph /  20.9 km/h 13.0 mph /  20.9 km/h 49 % 0.0 in /  0 mm
20:40 18.2 °F /  -7.7 °C 7.3 °F /  -13.7 °C 1017.8 in /  34462.7 hPa East 8.0 mph /  12.9 km/h 19.3 mph /  31.1 km/h 49 % 0.0 in /  0 mm
20:45 17.9 °F /  -7.8 °C 7.3 °F /  -13.7 °C 1017.8 in /  34462.7 hPa ENE 9.3 mph /  15 km/h 9.3 mph /  15 km/h 50 % 0.0 in /  0 mm
20:50 17.8 °F /  -7.9 °C 7.2 °F /  -13.8 °C 1017.8 in /  34462.7 hPa East 7.4 mph /  11.9 km/h 7.4 mph /  11.9 km/h 50 % 0.0 in /  0 mm
20:55 17.5 °F /  -8.1 °C 7.2 °F /  -13.8 °C 1017.8 in /  34462.7 hPa ENE 12.2 mph /  19.6 km/h 12.2 mph /  19.6 km/h 51 % 0.0 in /  0 mm
21:00 17.4 °F /  -8.1 °C 7.2 °F /  -13.8 °C 1017.8 in /  34462.7 hPa ENE 11.3 mph /  18.2 km/h 17.7 mph /  28.5 km/h 51 % 0.0 in /  0 mm
21:05 17.2 °F /  -8.2 °C 6.9 °F /  -13.9 °C 1017.8 in /  34462.7 hPa East 8.0 mph /  12.9 km/h 16.1 mph /  25.9 km/h 51 % 0.0 in /  0 mm
21:10 17.1 °F /  -8.3 °C 7.2 °F /  -13.8 °C 1017.8 in /  34462.7 hPa East 13.0 mph /  20.9 km/h 13.0 mph /  20.9 km/h 52 % 0.0 in /  0 mm
21:15 17.0 °F /  -8.3 °C 7.1 °F /  -13.8 °C 1017.8 in /  34462.7 hPa NNE 13.0 mph /  20.9 km/h 13.0 mph /  20.9 km/h 52 % 0.0 in /  0 mm
21:20 16.9 °F /  -8.4 °C 7.3 °F /  -13.7 °C 1017.8 in /  34462.7 hPa East 11.1 mph /  17.9 km/h 11.1 mph /  17.9 km/h 53 % 0.0 in /  0 mm
21:25 16.7 °F /  -8.5 °C 7.3 °F /  -13.7 °C 1017.8 in /  34462.7 hPa ESE 9.3 mph /  15 km/h 9.3 mph /  15 km/h 54 % 0.0 in /  0 mm
21:30 16.6 °F /  -8.6 °C 7.2 °F /  -13.8 °C 1017.8 in /  34462.7 hPa North 7.4 mph /  11.9 km/h 7.4 mph /  11.9 km/h 54 % 0.0 in /  0 mm
21:35 16.6 °F /  -8.6 °C 7.2 °F /  -13.8 °C 1017.8 in /  34462.7 hPa NNE 4.8 mph /  7.7 km/h 8.0 mph /  12.9 km/h 54 % 0.0 in /  0 mm
21:40 16.5 °F /  -8.6 °C 7.2 °F /  -13.8 °C 1017.8 in /  34462.7 hPa East 9.5 mph /  15.3 km/h 9.5 mph /  15.3 km/h 54 % 0.0 in /  0 mm
21:45 16.3 °F /  -8.7 °C 6.9 °F /  -13.9 °C 1018.8 in /  34496.6 hPa NNE 12.2 mph /  19.6 km/h 12.2 mph /  19.6 km/h 54 % 0.0 in /  0 mm
21:50 16.3 °F /  -8.7 °C 7.2 °F /  -13.8 °C 1018.8 in /  34496.6 hPa NE 8.0 mph /  12.9 km/h 12.9 mph /  20.8 km/h 55 % 0.0 in /  0 mm
21:55 16.1 °F /  -8.8 °C 7.3 °F /  -13.7 °C 1018.8 in /  34496.6 hPa ENE 9.7 mph /  15.6 km/h 9.7 mph /  15.6 km/h 56 % 0.0 in /  0 mm
22:00 16.1 °F /  -8.8 °C 7.3 °F /  -13.7 °C 1018.8 in /  34496.6 hPa ENE 4.8 mph /  7.7 km/h 9.7 mph /  15.6 km/h 56 % 0.0 in /  0 mm
22:05 16.0 °F /  -8.9 °C 7.2 °F /  -13.8 °C 1018.8 in /  34496.6 hPa NNE 9.3 mph /  15 km/h 9.3 mph /  15 km/h 56 % 0.0 in /  0 mm
22:10 16.0 °F /  -8.9 °C 7.2 °F /  -13.8 °C 1018.8 in /  34496.6 hPa ENE 7.6 mph /  12.2 km/h 7.6 mph /  12.2 km/h 56 % 0.0 in /  0 mm
22:15 16.0 °F /  -8.9 °C 7.5 °F /  -13.6 °C 1018.8 in /  34496.6 hPa NE 9.3 mph /  15 km/h 9.3 mph /  15 km/h 57 % 0.0 in /  0 mm
22:20 15.9 °F /  -8.9 °C 7.4 °F /  -13.7 °C 1018.8 in /  34496.6 hPa ENE 7.4 mph /  11.9 km/h 7.4 mph /  11.9 km/h 57 % 0.0 in /  0 mm
22:25 15.7 °F /  -9.1 °C 7.4 °F /  -13.7 °C 1018.8 in /  34496.6 hPa ENE 9.3 mph /  15 km/h 9.3 mph /  15 km/h 58 % 0.0 in /  0 mm
22:30 15.7 °F /  -9.1 °C 7.4 °F /  -13.7 °C 1018.8 in /  34496.6 hPa ENE 3.2 mph /  5.1 km/h 9.7 mph /  15.6 km/h 58 % 0.0 in /  0 mm
22:35 15.6 °F /  -9.1 °C 7.3 °F /  -13.7 °C 1018.8 in /  34496.6 hPa NE 7.4 mph /  11.9 km/h 7.4 mph /  11.9 km/h 58 % 0.0 in /  0 mm
22:40 15.5 °F /  -9.2 °C 7.5 °F /  -13.6 °C 1018.8 in /  34496.6 hPa NNE 5.6 mph /  9 km/h 5.6 mph /  9 km/h 59 % 0.0 in /  0 mm
22:45 15.4 °F /  -9.2 °C 7.4 °F /  -13.7 °C 1018.8 in /  34496.6 hPa East 5.0 mph /  8 km/h 5.0 mph /  8 km/h 59 % 0.0 in /  0 mm
22:50 15.4 °F /  -9.2 °C 7.4 °F /  -13.7 °C 1018.8 in /  34496.6 hPa ENE 3.2 mph /  5.1 km/h 4.8 mph /  7.7 km/h 59 % 0.0 in /  0 mm
22:55 15.4 °F /  -9.2 °C 7.4 °F /  -13.7 °C 1018.8 in /  34496.6 hPa ENE 3.2 mph /  5.1 km/h 8.0 mph /  12.9 km/h 59 % 0.0 in /  0 mm
23:00 15.4 °F /  -9.2 °C 7.4 °F /  -13.7 °C 1019.9 in /  34533.8 hPa SE 3.7 mph /  6 km/h 3.7 mph /  6 km/h 59 % 0.0 in /  0 mm
23:05 15.3 °F /  -9.3 °C 7.3 °F /  -13.7 °C 1019.9 in /  34533.8 hPa East 1.6 mph /  2.6 km/h 4.8 mph /  7.7 km/h 59 % 0.0 in /  0 mm
23:10 15.3 °F /  -9.3 °C 7.6 °F /  -13.6 °C 1019.9 in /  34533.8 hPa NE 5.6 mph /  9 km/h 5.6 mph /  9 km/h 60 % 0.0 in /  0 mm
23:15 15.2 °F /  -9.3 °C 7.7 °F /  -13.5 °C 1019.9 in /  34533.8 hPa East 7.4 mph /  11.9 km/h 7.4 mph /  11.9 km/h 61 % 0.0 in /  0 mm
23:20 15.2 °F /  -9.3 °C 7.9 °F /  -13.4 °C 1019.9 in /  34533.8 hPa ESE 4.2 mph /  6.8 km/h 4.2 mph /  6.8 km/h 62 % 0.0 in /  0 mm
23:25 15.1 °F /  -9.4 °C 7.6 °F /  -13.6 °C 1019.9 in /  34533.8 hPa East 5.6 mph /  9 km/h 5.6 mph /  9 km/h 61 % 0.0 in /  0 mm
23:30 15.0 °F /  -9.4 °C 7.6 °F /  -13.6 °C 1019.9 in /  34533.8 hPa East 3.9 mph /  6.3 km/h 3.9 mph /  6.3 km/h 61 % 0.0 in /  0 mm
23:35 11.8 °F /  -11.2 °C 6.1 °F /  -14.4 °C 1019.9 in /  34533.8 hPa North 1.6 mph /  2.6 km/h 3.2 mph /  5.1 km/h 68 % 0.0 in /  0 mm
23:36 14.9 °F /  -9.5 °C 7.4 °F /  -13.7 °C 1019.9 in /  34533.8 hPa NNE 3.7 mph /  6 km/h 3.7 mph /  6 km/h 61 % 0.0 in /  0 mm
23:41 14.8 °F /  -9.6 °C 7.3 °F /  -13.7 °C 1018.8 in /  34496.6 hPa ENE 4.7 mph /  7.6 km/h 4.7 mph /  7.6 km/h 61 % 0.0 in /  0 mm
23:45 11.7 °F /  -11.3 °C 6.0 °F /  -14.4 °C 1019.9 in /  34533.8 hPa Calm   1.6 mph /  2.6 km/h 68 % 0.0 in /  0 mm
23:46 14.8 °F /  -9.6 °C 7.3 °F /  -13.7 °C 1018.8 in /  34496.6 hPa ENE 7.4 mph /  11.9 km/h 7.4 mph /  11.9 km/h 61 % 0.0 in /  0 mm
23:51 14.8 °F /  -9.6 °C 7.3 °F /  -13.7 °C 1018.8 in /  34496.6 hPa ENE 3.7 mph /  6 km/h 3.7 mph /  6 km/h 61 % 0.0 in /  0 mm
23:55 11.6 °F /  -11.3 °C 6.1 °F /  -14.4 °C 1018.8 in /  34496.6 hPa Calm   1.6 mph /  2.6 km/h 69 % 0.0 in /  0 mm
23:56 14.8 °F /  -9.6 °C 7.6 °F /  -13.6 °C 1019.9 in /  34533.8 hPa NE 5.6 mph /  9 km/h 5.6 mph /  9 km/h 62 % 0.0 in /  0 mm
Meteo Sesrovires
Elogis d' Weather Underground - 1.5 mb

Guio original per  Jim McMurry - jmcmurry@mwt.net Adaptat per a la plantilla per  Wim van der Kuil - Leuven-Template.eu

Trobareu la nostra informacio del temps tambe a:

Weather Underground

AWEKAS